Najran, Saudi Arabia
Current Conditions -  °F | °C
As of 7:00 AM on Monday 24 Nov 2014 (Local Time) from OENG Reporting Station
Sand / Dust Storm Sand / Dust Storm  
Wind Chill: 68°   Ceiling: Unl
Heat Index: 68°   Visibility: 3mi
Dew Point: 46°   Wind: 0mph
Humidity: 46%   Direction: NA
Pressure: 30.06"   Gusts: NA
Location:  17.62°N, 44.42°E
Report Text: OENG 240400Z 00000KT 5000 DU FEW030 SCT090 20/08 Q1018 NOSIG
Loading
Personal Weather Stations






























Interactive Weather Map New forecast layout! Learn more

10-Day Weather Forecast

Advertisements
Track Severe Weather on mobile